createdAt,value
2023-03-31T00:01:01.001Z,100786.03
2023-03-31T00:03:28.252Z,100774.28
2023-03-31T00:06:02.085Z,100774.31
2023-03-31T00:08:35.775Z,100782.22
2023-03-31T00:11:05.436Z,100772.69
2023-03-31T00:13:32.431Z,100771.03
2023-03-31T00:16:06.160Z,100772.69
2023-03-31T00:18:33.747Z,100757.38
2023-03-31T00:21:24.913Z,100751.34
2023-03-31T00:23:58.386Z,100753.84
2023-03-31T00:26:26.485Z,100748.13
2023-03-31T00:28:54.040Z,100745.09
2023-03-31T00:31:22.449Z,100746.19
2023-03-31T00:33:50.037Z,100749.47
2023-03-31T00:36:21.517Z,100744.81
2023-03-31T00:38:49.400Z,100742.38
2023-03-31T00:41:16.805Z,100736.38
2023-03-31T00:44:08.689Z,100730.34
2023-03-31T00:46:52.815Z,100712.88
2023-03-31T00:49:31.463Z,100715.06
2023-03-31T00:52:37.500Z,100715.59
2023-03-31T00:55:10.038Z,100716.44
2023-03-31T00:57:41.028Z,100713.44
2023-03-31T01:00:17.017Z,100714.81
2023-03-31T01:02:52.686Z,100707.16
2023-03-31T01:05:23.190Z,100711.81
2023-03-31T01:07:51.998Z,100702.78
2023-03-31T01:10:18.956Z,100694.59
2023-03-31T01:12:56.066Z,100684.78
2023-03-31T01:15:23.449Z,100688.31
2023-03-31T01:17:55.998Z,100682.31
2023-03-31T01:20:50.835Z,100693.25
2023-03-31T01:23:21.006Z,100690.53
2023-03-31T01:26:33.481Z,100677.13
2023-03-31T01:29:18.606Z,100677.44
2023-03-31T01:32:18.128Z,100673.59
2023-03-31T01:34:53.819Z,100667.88
2023-03-31T01:37:39.291Z,100667.84
2023-03-31T01:40:24.439Z,100665.94
2023-03-31T01:42:53.962Z,100654.19
2023-03-31T01:45:54.181Z,100657.44
2023-03-31T01:48:23.923Z,100655.47
2023-03-31T01:50:58.889Z,100643.22
2023-03-31T01:53:47.317Z,100643.81
2023-03-31T01:56:22.608Z,100641.63
2023-03-31T01:58:58.674Z,100640.28
2023-03-31T02:01:38.192Z,100632.13
2023-03-31T02:04:10.703Z,100628.00
2023-03-31T02:06:42.889Z,100631.31
2023-03-31T02:09:15.928Z,100626.69
2023-03-31T02:11:45.774Z,100626.94
2023-03-31T02:14:19.386Z,100617.94
2023-03-31T02:16:50.375Z,100609.72
2023-03-31T02:19:19.438Z,100611.38
2023-03-31T02:21:50.166Z,100612.75
2023-03-31T02:24:20.420Z,100605.66
2023-03-31T02:27:14.156Z,100597.47
2023-03-31T02:29:41.554Z,100586.66
2023-03-31T02:32:25.973Z,100586.66
2023-03-31T02:34:55.188Z,100585.34
2023-03-31T02:37:22.817Z,100584.56
2023-03-31T02:39:52.922Z,100581.38
2023-03-31T02:42:20.385Z,100574.69
2023-03-31T02:44:50.072Z,100581.09
2023-03-31T02:47:19.297Z,100574.84
2023-03-31T02:49:51.616Z,100562.69
2023-03-31T02:52:40.549Z,100573.63
2023-03-31T02:55:53.408Z,100571.72
2023-03-31T02:58:42.409Z,100567.22
2023-03-31T03:01:24.070Z,100559.84
2023-03-31T03:04:17.073Z,100562.84
2023-03-31T03:07:22.268Z,100556.03
2023-03-31T03:10:04.829Z,100557.66
2023-03-31T03:12:43.229Z,100559.03
2023-03-31T03:15:21.589Z,100542.41
2023-03-31T03:17:50.126Z,100543.22
2023-03-31T03:20:20.255Z,100545.41
2023-03-31T03:22:47.952Z,100533.66
2023-03-31T03:25:17.395Z,100537.47
2023-03-31T03:27:44.301Z,100522.19
2023-03-31T03:30:13.165Z,100531.19
2023-03-31T03:32:41.519Z,100526.84
2023-03-31T03:35:08.978Z,100533.94
2023-03-31T03:37:36.121Z,100531.47
2023-03-31T03:40:05.913Z,100526.56
2023-03-31T03:42:34.263Z,100528.72
2023-03-31T03:45:01.662Z,100534.72
2023-03-31T03:47:29.151Z,100535.81
2023-03-31T03:49:56.538Z,100542.06
2023-03-31T03:52:23.414Z,100539.59
2023-03-31T03:54:50.272Z,100532.53
2023-03-31T03:57:17.328Z,100538.56
2023-03-31T03:59:44.368Z,100531.44
2023-03-31T04:02:11.483Z,100523.22
2023-03-31T04:04:38.398Z,100525.69
2023-03-31T04:07:06.108Z,100520.47
2023-03-31T04:09:33.041Z,100505.44
2023-03-31T04:12:00.130Z,100514.19
2023-03-31T04:14:27.250Z,100499.66
2023-03-31T04:16:56.568Z,100501.53
2023-03-31T04:19:26.147Z,100500.22
2023-03-31T04:21:59.035Z,100501.53
2023-03-31T04:24:30.752Z,100496.53
2023-03-31T04:26:58.105Z,100505.59
2023-03-31T04:29:26.837Z,100504.28
2023-03-31T04:31:58.886Z,100504.75
2023-03-31T04:34:35.227Z,100497.69
2023-03-31T04:37:03.086Z,100490.22
2023-03-31T04:39:31.238Z,100487.97
2023-03-31T04:41:59.078Z,100494.00
2023-03-31T04:44:27.377Z,100492.16
2023-03-31T04:46:55.128Z,100494.31
2023-03-31T04:49:22.462Z,100486.50
2023-03-31T04:51:49.440Z,100488.28
2023-03-31T04:54:16.681Z,100488.22
2023-03-31T04:56:46.663Z,100491.56
2023-03-31T04:59:13.745Z,100483.91
2023-03-31T05:01:45.190Z,100483.00
2023-03-31T05:04:12.146Z,100466.06
2023-03-31T05:06:39.003Z,100477.34
2023-03-31T05:09:06.658Z,100465.88
2023-03-31T05:11:33.624Z,100462.72
2023-03-31T05:14:00.706Z,100462.13
2023-03-31T05:16:28.758Z,100461.13
2023-03-31T05:18:55.764Z,100455.72
2023-03-31T05:21:22.962Z,100450.19
2023-03-31T05:23:50.297Z,100449.22
2023-03-31T05:26:17.248Z,100445.28
2023-03-31T05:28:44.449Z,100436.38
2023-03-31T05:31:13.134Z,100442.34
2023-03-31T05:33:42.132Z,100436.50
2023-03-31T05:36:12.053Z,100439.75
2023-03-31T05:38:39.354Z,100442.94
2023-03-31T05:41:07.267Z,100420.81
2023-03-31T05:43:34.189Z,100432.94
2023-03-31T05:46:01.509Z,100424.09
2023-03-31T05:48:28.604Z,100426.19
2023-03-31T05:50:59.650Z,100437.19
2023-03-31T05:53:27.683Z,100436.44
2023-03-31T05:56:03.154Z,100440.13
2023-03-31T05:58:30.529Z,100440.97
2023-03-31T06:01:08.852Z,100441.94
2023-03-31T06:03:38.336Z,100433.28
2023-03-31T06:06:06.343Z,100429.66
2023-03-31T06:08:33.316Z,100422.56
2023-03-31T06:11:00.807Z,100429.97
2023-03-31T06:13:27.654Z,100433.91
2023-03-31T06:16:00.095Z,100424.44
2023-03-31T06:18:29.201Z,100424.91
2023-03-31T06:20:57.015Z,100429.44
2023-03-31T06:23:24.966Z,100426.16
2023-03-31T06:25:53.154Z,100424.28
2023-03-31T06:28:21.536Z,100418.22
2023-03-31T06:30:48.514Z,100414.78
2023-03-31T06:33:16.545Z,100403.06
2023-03-31T06:35:43.406Z,100415.66
2023-03-31T06:38:10.797Z,100405.59
2023-03-31T06:40:37.837Z,100411.78
2023-03-31T06:43:04.761Z,100413.31
2023-03-31T06:45:31.557Z,100400.06
2023-03-31T06:47:58.851Z,100401.34
2023-03-31T06:50:25.846Z,100402.31
2023-03-31T06:52:55.167Z,100405.59
2023-03-31T06:55:22.317Z,100402.06
2023-03-31T06:57:49.148Z,100411.03
2023-03-31T07:00:16.870Z,100406.28
2023-03-31T07:02:43.766Z,100412.09
2023-03-31T07:05:11.124Z,100413.66
2023-03-31T07:07:38.082Z,100421.03
2023-03-31T07:10:05.689Z,100401.31
2023-03-31T07:12:35.650Z,100409.03
2023-03-31T07:15:02.537Z,100408.75
2023-03-31T07:17:29.468Z,100405.28
2023-03-31T07:19:56.548Z,100392.31
2023-03-31T07:39:45.736Z,100391.19
2023-03-31T07:42:12.688Z,100393.88
2023-03-31T07:44:39.601Z,100397.63
2023-03-31T07:47:06.542Z,100398.66
2023-03-31T07:49:34.691Z,100391.97
2023-03-31T07:52:01.993Z,100396.22
2023-03-31T07:54:29.108Z,100398.97
2023-03-31T07:56:56.238Z,100392.59
2023-03-31T07:59:23.266Z,100391.41
2023-03-31T08:01:50.925Z,100396.66
2023-03-31T08:04:18.016Z,100391.25
2023-03-31T08:06:44.880Z,100397.72
2023-03-31T08:09:12.005Z,100388.47
2023-03-31T08:11:38.844Z,100396.94
2023-03-31T08:14:05.803Z,100387.25
2023-03-31T08:16:32.906Z,100391.16
2023-03-31T08:18:59.765Z,100381.09
2023-03-31T08:21:28.642Z,100388.56
2023-03-31T08:23:56.165Z,100376.13
2023-03-31T08:26:25.476Z,100379.56
2023-03-31T08:28:53.357Z,100371.63
2023-03-31T08:31:21.658Z,100369.59
2023-03-31T08:33:48.621Z,100368.75
2023-03-31T08:36:15.629Z,100369.19
2023-03-31T08:38:46.188Z,100366.28
2023-03-31T08:41:36.632Z,100366.94
2023-03-31T08:44:11.099Z,100365.53
2023-03-31T08:46:39.378Z,100355.19
2023-03-31T08:49:07.580Z,100358.47
2023-03-31T08:51:41.397Z,100357.06
2023-03-31T08:54:17.073Z,100337.06
2023-03-31T08:56:49.423Z,100349.13
2023-03-31T08:59:36.366Z,100346.81
2023-03-31T09:02:03.496Z,100344.69
2023-03-31T09:05:00.945Z,100347.00
2023-03-31T09:07:39.939Z,100344.81
2023-03-31T09:10:13.145Z,100347.44
2023-03-31T09:12:49.916Z,100338.00
2023-03-31T09:15:28.517Z,100338.72
2023-03-31T09:17:59.679Z,100336.91
2023-03-31T09:20:33.200Z,100328.94
2023-03-31T09:23:34.158Z,100330.47
2023-03-31T09:26:03.440Z,100330.53
2023-03-31T09:28:39.288Z,100315.00
2023-03-31T09:31:14.613Z,100322.00
2023-03-31T09:33:46.021Z,100323.81
2023-03-31T09:36:19.018Z,100306.78
2023-03-31T09:38:47.468Z,100311.94
2023-03-31T09:41:16.767Z,100310.25
2023-03-31T09:43:46.366Z,100311.31
2023-03-31T09:46:26.007Z,100306.78
2023-03-31T09:49:00.538Z,100305.81
2023-03-31T09:51:32.759Z,100297.13
2023-03-31T09:54:12.490Z,100297.63
2023-03-31T09:56:42.325Z,100298.00
2023-03-31T09:59:18.456Z,100295.31
2023-03-31T10:01:48.084Z,100293.69
2023-03-31T10:04:27.818Z,100289.25
2023-03-31T10:06:56.444Z,100291.03
2023-03-31T10:09:28.593Z,100289.59
2023-03-31T10:12:04.744Z,100295.25
2023-03-31T10:14:44.531Z,100284.09
2023-03-31T10:17:17.062Z,100278.34
2023-03-31T10:20:19.116Z,100283.00
2023-03-31T10:22:46.322Z,100274.63
2023-03-31T10:25:20.788Z,100275.31
2023-03-31T10:27:53.075Z,100264.16
2023-03-31T10:30:27.166Z,100258.25
2023-03-31T10:32:54.915Z,100252.13
2023-03-31T10:35:27.088Z,100252.47
2023-03-31T10:38:03.344Z,100251.22
2023-03-31T10:40:34.786Z,100252.56
2023-03-31T10:43:13.101Z,100245.88
2023-03-31T10:45:56.430Z,100243.78
2023-03-31T10:48:28.058Z,100231.00
2023-03-31T10:50:59.979Z,100215.47
2023-03-31T10:53:29.534Z,100231.09
2023-03-31T10:56:02.509Z,100225.09
2023-03-31T10:59:04.248Z,100215.34
2023-03-31T11:01:50.725Z,100218.97
2023-03-31T11:04:32.564Z,100214.94
2023-03-31T11:07:27.506Z,100203.28
2023-03-31T11:10:22.766Z,100195.06
2023-03-31T11:12:59.684Z,100187.31
2023-03-31T11:15:39.596Z,100183.22
2023-03-31T11:18:36.096Z,100182.88
2023-03-31T11:21:33.246Z,100171.00
2023-03-31T11:24:15.422Z,100180.09
2023-03-31T11:27:25.925Z,100174.44
2023-03-31T11:30:10.935Z,100182.72
2023-03-31T11:32:49.710Z,100171.34
2023-03-31T11:35:32.965Z,100171.50
2023-03-31T11:38:02.867Z,100174.47
2023-03-31T11:40:38.573Z,100177.53
2023-03-31T11:43:14.789Z,100176.06
2023-03-31T11:45:51.017Z,100173.69
2023-03-31T11:48:32.201Z,100163.88
2023-03-31T11:51:02.151Z,100165.91
2023-03-31T11:53:36.818Z,100154.84
2023-03-31T11:56:08.065Z,100157.47
2023-03-31T11:58:44.594Z,100139.88
2023-03-31T12:01:17.256Z,100139.81
2023-03-31T12:03:47.333Z,100142.09
2023-03-31T12:06:19.991Z,100128.34
2023-03-31T12:09:12.138Z,100128.50
2023-03-31T12:11:46.791Z,100134.03
2023-03-31T12:14:33.806Z,100114.03
2023-03-31T12:17:09.341Z,100123.16
2023-03-31T12:19:51.374Z,100112.81
2023-03-31T12:22:27.098Z,100109.31
2023-03-31T12:24:54.516Z,100114.31
2023-03-31T12:27:30.724Z,100116.81
2023-03-31T12:30:07.370Z,100114.75
2023-03-31T12:32:42.583Z,100111.47
2023-03-31T12:35:12.498Z,100111.69
2023-03-31T12:38:10.790Z,100099.53
2023-03-31T12:41:04.373Z,100094.13
2023-03-31T12:43:33.813Z,100095.63
2023-03-31T12:46:33.059Z,100097.41
2023-03-31T12:49:18.746Z,100092.53
2023-03-31T12:52:01.456Z,100081.72
2023-03-31T12:54:43.629Z,100084.56
2023-03-31T12:57:10.620Z,100076.28
2023-03-31T13:00:05.330Z,100074.63
2023-03-31T13:02:32.269Z,100065.63
2023-03-31T13:04:59.178Z,100068.97
2023-03-31T13:07:29.109Z,100070.75
2023-03-31T13:10:19.936Z,100057.41
2023-03-31T13:13:16.564Z,100062.94
2023-03-31T13:16:02.807Z,100049.72
2023-03-31T13:18:33.747Z,100051.31
2023-03-31T13:21:23.295Z,100048.00
2023-03-31T13:23:50.957Z,100043.94
2023-03-31T13:26:32.867Z,100040.09
2023-03-31T13:29:21.670Z,100037.22
2023-03-31T13:32:25.653Z,100048.75
2023-03-31T13:35:00.892Z,100035.25
2023-03-31T13:37:54.837Z,100024.34
2023-03-31T13:40:57.351Z,100023.09
2023-03-31T13:43:27.320Z,100022.59
2023-03-31T13:46:10.452Z,100024.59
2023-03-31T13:48:57.654Z,100024.53
2023-03-31T13:51:47.370Z,100015.91
2023-03-31T13:54:45.866Z,100009.75
2023-03-31T13:57:39.460Z,100016.63
2023-03-31T14:00:12.747Z,100015.31
2023-03-31T14:02:57.433Z,100003.41
2023-03-31T14:05:31.364Z,99999.09
2023-03-31T14:08:02.548Z,100002.34
2023-03-31T14:10:34.220Z,99996.44
2023-03-31T14:13:09.958Z,99989.09
2023-03-31T14:15:40.970Z,99996.50
2023-03-31T14:18:10.911Z,99992.91
2023-03-31T14:20:47.622Z,99992.69
2023-03-31T14:23:29.782Z,99992.97
2023-03-31T14:26:04.560Z,99993.03
2023-03-31T14:28:54.317Z,99993.09
2023-03-31T14:32:02.558Z,99991.34
2023-03-31T14:34:39.908Z,99988.16
2023-03-31T14:37:21.867Z,99983.66
2023-03-31T14:39:56.482Z,99979.06
2023-03-31T14:42:40.656Z,99984.47
2023-03-31T14:45:18.585Z,99982.31
2023-03-31T14:47:56.987Z,99984.66
2023-03-31T14:50:38.182Z,99979.63
2023-03-31T14:53:05.213Z,99981.75
2023-03-31T14:55:49.289Z,99983.06
2023-03-31T14:58:29.802Z,99984.75
2023-03-31T15:00:56.932Z,99981.25
2023-03-31T15:03:26.123Z,99978.31
2023-03-31T15:06:01.249Z,99977.88
2023-03-31T15:08:30.531Z,99980.75
2023-03-31T15:11:12.992Z,99984.94
2023-03-31T15:14:05.146Z,99972.84
2023-03-31T15:16:45.580Z,99983.03
2023-03-31T15:19:16.624Z,99976.66
2023-03-31T15:21:44.823Z,99974.56
2023-03-31T15:24:13.939Z,99964.34
2023-03-31T15:26:50.076Z,99972.22
2023-03-31T15:29:20.167Z,99971.66
2023-03-31T15:31:48.321Z,99961.34
2023-03-31T15:34:23.000Z,99972.75
2023-03-31T15:36:50.189Z,99967.72
2023-03-31T15:39:17.185Z,99959.75
2023-03-31T15:41:47.024Z,99965.03
2023-03-31T15:44:32.576Z,99958.34
2023-03-31T15:47:13.043Z,99959.63
2023-03-31T15:49:50.026Z,99954.25
2023-03-31T15:52:42.080Z,99946.88
2023-03-31T15:55:41.200Z,99960.56
2023-03-31T15:58:15.793Z,99954.22
2023-03-31T16:00:47.519Z,99953.78
2023-03-31T16:03:17.126Z,99959.19
2023-03-31T16:05:55.799Z,99953.28
2023-03-31T16:08:38.228Z,99948.56
2023-03-31T16:11:09.803Z,99954.41
2023-03-31T16:13:40.906Z,99949.66
2023-03-31T16:16:11.009Z,99953.19
2023-03-31T16:18:42.576Z,99957.72
2023-03-31T16:21:10.038Z,99962.44
2023-03-31T16:23:41.664Z,99958.19
2023-03-31T16:26:08.768Z,99957.97
2023-03-31T16:28:37.410Z,99952.50
2023-03-31T16:31:06.133Z,99963.44
2023-03-31T16:33:54.165Z,99958.66
2023-03-31T16:36:21.165Z,99957.84
2023-03-31T16:38:48.885Z,99951.53
2023-03-31T16:41:16.107Z,99961.97
2023-03-31T16:43:45.475Z,99949.66
2023-03-31T16:46:12.815Z,99951.09
2023-03-31T16:48:39.791Z,99953.75
2023-03-31T16:51:06.812Z,99951.13
2023-03-31T16:53:35.923Z,99953.81
2023-03-31T16:56:05.005Z,99955.16
2023-03-31T16:58:32.042Z,99946.06
2023-03-31T17:00:59.012Z,99950.44
2023-03-31T17:03:26.950Z,99954.06
2023-03-31T17:05:58.615Z,99945.28
2023-03-31T17:08:27.868Z,99946.91
2023-03-31T17:11:11.058Z,99956.63
2023-03-31T17:13:39.712Z,99953.56
2023-03-31T17:16:17.531Z,99944.97
2023-03-31T17:18:49.312Z,99955.66
2023-03-31T17:21:19.319Z,99955.00
2023-03-31T17:23:47.757Z,99953.50
2023-03-31T17:26:15.568Z,99957.22
2023-03-31T17:28:43.131Z,99953.31
2023-03-31T17:31:18.652Z,99962.53
2023-03-31T17:33:46.325Z,99969.53
2023-03-31T17:36:13.744Z,99976.66
2023-03-31T17:38:42.306Z,99968.72
2023-03-31T17:41:12.987Z,99983.44
2023-03-31T17:43:40.608Z,99991.16
2023-03-31T17:46:13.011Z,99989.44
2023-03-31T17:48:40.894Z,99981.53
2023-03-31T17:51:14.930Z,99981.44
2023-03-31T17:53:44.433Z,99997.84
2023-03-31T17:56:12.157Z,99988.94
2023-03-31T17:58:39.705Z,99996.69
2023-03-31T18:01:08.861Z,99990.84
2023-03-31T18:03:36.721Z,99998.94
2023-03-31T18:06:07.909Z,99996.66
2023-03-31T18:08:36.287Z,100001.41
2023-03-31T18:11:05.330Z,99992.00
2023-03-31T18:13:34.763Z,99993.78
2023-03-31T18:16:02.682Z,99994.88
2023-03-31T18:18:29.767Z,99999.56
2023-03-31T18:20:57.412Z,99986.44
2023-03-31T18:23:24.403Z,99986.31
2023-03-31T18:25:51.821Z,99985.13
2023-03-31T18:28:18.929Z,99989.66
2023-03-31T18:30:47.376Z,99985.09
2023-03-31T18:33:15.720Z,99977.63
2023-03-31T18:35:42.931Z,99977.91
2023-03-31T18:38:10.013Z,99978.47
2023-03-31T18:40:38.499Z,99979.09
2023-03-31T18:43:06.195Z,99977.22
2023-03-31T18:45:33.096Z,99978.78
2023-03-31T18:48:00.406Z,99986.13
2023-03-31T18:50:27.399Z,99980.91
2023-03-31T18:52:54.858Z,99981.34
2023-03-31T18:55:22.513Z,99985.56
2023-03-31T18:57:49.619Z,99971.81
2023-03-31T19:00:17.394Z,99979.38
2023-03-31T19:02:44.844Z,99973.00
2023-03-31T19:05:12.201Z,99974.50
2023-03-31T19:07:40.418Z,99980.88
2023-03-31T19:10:08.032Z,99975.22
2023-03-31T19:12:34.988Z,99966.38
2023-03-31T19:15:02.224Z,99967.50
2023-03-31T19:17:29.151Z,99977.41
2023-03-31T19:19:56.131Z,99963.94
2023-03-31T19:22:22.997Z,99964.13
2023-03-31T19:24:49.873Z,99973.22
2023-03-31T19:27:16.861Z,99962.72
2023-03-31T19:41:53.328Z,99969.16
2023-03-31T19:44:20.266Z,99964.34
2023-03-31T19:46:48.294Z,99968.22
2023-03-31T19:49:15.588Z,99969.03
2023-03-31T19:51:42.492Z,99969.34
2023-03-31T19:54:11.465Z,99974.38
2023-03-31T19:56:39.030Z,99979.38
2023-03-31T19:59:06.363Z,99976.97
2023-03-31T20:01:33.696Z,99976.16
2023-03-31T20:04:01.026Z,99974.22
2023-03-31T20:06:30.861Z,99974.22
2023-03-31T20:09:00.882Z,99975.19
2023-03-31T20:11:30.972Z,99966.91
2023-03-31T20:13:58.770Z,99961.28
2023-03-31T20:16:28.265Z,99966.25
2023-03-31T20:19:04.926Z,99961.09
2023-03-31T20:21:35.480Z,99973.84
2023-03-31T20:24:02.925Z,99967.69
2023-03-31T20:26:32.133Z,99967.38
2023-03-31T20:29:04.472Z,99969.97
2023-03-31T20:31:36.693Z,99963.47
2023-03-31T20:34:06.896Z,99958.63
2023-03-31T20:36:34.450Z,99962.31
2023-03-31T20:39:04.385Z,99963.28
2023-03-31T20:41:32.036Z,99962.66
2023-03-31T20:43:59.363Z,99958.16
2023-03-31T20:46:26.713Z,99964.41
2023-03-31T20:48:56.678Z,99959.06
2023-03-31T20:51:28.245Z,99950.50
2023-03-31T20:53:56.696Z,99958.03
2023-03-31T20:56:43.118Z,99951.75
2023-03-31T20:59:12.464Z,99942.69
2023-03-31T21:01:39.972Z,99938.81
2023-03-31T21:04:09.841Z,99939.31
2023-03-31T21:06:40.040Z,99935.56
2023-03-31T21:09:07.465Z,99943.19
2023-03-31T21:11:34.620Z,99942.47
2023-03-31T21:14:02.014Z,99935.19
2023-03-31T21:16:29.092Z,99921.63
2023-03-31T21:18:57.143Z,99929.91
2023-03-31T21:21:25.009Z,99928.78
2023-03-31T21:23:52.096Z,99920.56
2023-03-31T21:26:19.770Z,99930.09
2023-03-31T21:28:46.796Z,99916.06
2023-03-31T21:31:19.902Z,99920.91
2023-03-31T21:33:47.260Z,99926.56
2023-03-31T21:36:17.917Z,99919.13
2023-03-31T21:38:45.786Z,99925.78
2023-03-31T21:41:18.276Z,99921.44
2023-03-31T21:43:46.197Z,99926.75
2023-03-31T21:46:17.842Z,99925.63
2023-03-31T21:48:45.079Z,99925.66
2023-03-31T21:51:15.334Z,99927.28
2023-03-31T21:53:42.263Z,99924.06
2023-03-31T21:56:09.458Z,99930.69
2023-03-31T21:58:39.384Z,99930.06
2023-03-31T22:01:07.729Z,99929.72
2023-03-31T22:03:35.692Z,99927.13
2023-03-31T22:06:04.080Z,99927.94
2023-03-31T22:08:31.772Z,99923.25
2023-03-31T22:11:00.545Z,99931.31
2023-03-31T22:13:29.101Z,99937.91
2023-03-31T22:15:56.512Z,99929.94
2023-03-31T22:18:23.799Z,99931.38
2023-03-31T22:20:51.248Z,99929.88
2023-03-31T22:23:20.701Z,99932.59
2023-03-31T22:25:48.178Z,99935.50
2023-03-31T22:28:17.070Z,99936.94
2023-03-31T22:30:44.274Z,99922.97
2023-03-31T22:33:22.162Z,99926.72
2023-03-31T22:36:09.840Z,99928.19
2023-03-31T22:38:36.846Z,99923.81
2023-03-31T22:41:03.835Z,99919.97
2023-03-31T22:43:32.558Z,99917.06
2023-03-31T22:46:07.249Z,99913.97
2023-03-31T22:48:34.666Z,99903.56
2023-03-31T22:51:08.961Z,99900.16
2023-03-31T22:53:36.070Z,99906.16
2023-03-31T22:56:08.730Z,99896.13
2023-03-31T22:58:35.731Z,99898.66
2023-03-31T23:01:02.711Z,99891.75
2023-03-31T23:03:29.695Z,99888.72
2023-03-31T23:06:03.381Z,99889.16
2023-03-31T23:08:30.351Z,99885.03
2023-03-31T23:10:59.366Z,99881.28
2023-03-31T23:13:27.229Z,99874.91
2023-03-31T23:15:54.397Z,99876.53
2023-03-31T23:18:22.613Z,99882.97
2023-03-31T23:20:49.598Z,99873.53
2023-03-31T23:23:16.612Z,99875.78
2023-03-31T23:25:43.518Z,99873.59
2023-03-31T23:28:10.358Z,99870.84
2023-03-31T23:30:37.261Z,99870.72
2023-03-31T23:33:04.321Z,99861.75
2023-03-31T23:35:31.449Z,99865.25
2023-03-31T23:37:58.698Z,99861.25
2023-03-31T23:40:25.575Z,99859.16
2023-03-31T23:42:52.483Z,99854.78
2023-03-31T23:45:19.492Z,99851.22
2023-03-31T23:47:46.425Z,99851.53
2023-03-31T23:50:13.367Z,99846.84
2023-03-31T23:52:40.214Z,99842.63
2023-03-31T23:55:07.453Z,99838.69
2023-03-31T23:57:34.436Z,99834.06
